Time;durP1;ratioP1;P1;durP2;ratioP2;P2;SDS_P1;SDS_P2;PMS_P1;PMS_P2;Temp;Humidity;BMP_temperature;BMP_pressure;BME280_temperature;BME280_humidity;BME280_pressure;Samples;Min_cycle;Max_cycle;Signal;HPM_P1;HPM_P2
2023/05/13 00:01:04;;;;;;;8.32;5.90;;;;;;;-148.88;84.22;-17125.47;4995206;28;20021;-76
2023/05/13 00:03:31;;;;;;;9.20;6.15;;;;;;;-148.88;83.94;-17125.47;5013722;28;20021;-76
2023/05/13 00:05:56;;;;;;;10.98;7.32;;;;;;;-148.88;83.47;-17125.47;5016732;28;20548;-77
2023/05/13 00:08:21;;;;;;;10.32;6.20;;;;;;;-148.88;83.92;-17125.47;5017352;28;20112;-76
2023/05/13 00:10:47;;;;;;;8.30;6.47;;;;;;;-148.88;84.30;-17125.47;4999128;28;20112;-76
2023/05/13 00:13:12;;;;;;;9.68;6.65;;;;;;;-148.88;83.89;-17125.47;4999016;28;20053;-76
2023/05/13 00:15:39;;;;;;;9.85;6.32;;;;;;;-148.88;84.53;-17125.47;5016823;28;20026;-76
2023/05/13 00:18:04;;;;;;;10.65;6.63;;;;;;;-148.88;85.31;-17125.47;5016807;28;20488;-76
2023/05/13 00:20:29;;;;;;;8.32;6.82;;;;;;;-148.88;86.05;-17125.47;4998976;28;20036;-76
2023/05/13 00:22:55;;;;;;;8.18;6.57;;;;;;;-148.88;85.31;-17125.47;4998874;28;20017;-76
2023/05/13 00:25:20;;;;;;;7.28;6.03;;;;;;;-148.88;85.44;-17125.47;4998858;28;20508;-76
2023/05/13 00:27:45;;;;;;;9.32;6.60;;;;;;;-148.88;85.19;-17125.47;5016886;28;20025;-76
2023/05/13 00:30:11;;;;;;;8.10;6.47;;;;;;;-148.88;84.62;-17125.47;5016366;28;20026;-76
2023/05/13 00:32:36;;;;;;;7.90;5.90;;;;;;;-148.88;84.21;-17125.47;5016373;28;20036;-76
2023/05/13 00:35:02;;;;;;;7.50;6.30;;;;;;;-148.88;83.44;-17125.47;5016164;28;20116;-76
2023/05/13 00:37:28;;;;;;;8.05;6.40;;;;;;;-148.88;82.33;-17125.47;5016240;28;20026;-76
2023/05/13 00:39:53;;;;;;;6.95;6.25;;;;;;;-148.88;81.88;-17125.47;4998606;28;20042;-76
2023/05/13 00:42:18;;;;;;;8.43;6.65;;;;;;;-148.88;82.85;-17125.47;5016182;28;20030;-76
2023/05/13 00:44:44;;;;;;;7.20;6.50;;;;;;;-148.88;82.59;-17125.47;5016099;28;20022;-76
2023/05/13 00:47:10;;;;;;;9.75;6.90;;;;;;;-148.88;81.53;-17125.47;5015940;28;20109;-76
2023/05/13 00:49:36;;;;;;;8.20;6.50;;;;;;;-148.88;81.03;-17125.47;5016070;28;20026;-76
2023/05/13 00:52:02;;;;;;;7.90;6.63;;;;;;;-148.88;81.73;-17125.47;5016733;28;20088;-76
2023/05/13 00:54:28;;;;;;;9.13;6.82;;;;;;;-148.88;82.07;-17125.47;5015855;28;21422;-76
2023/05/13 00:56:55;;;;;;;7.95;6.93;;;;;;;-148.88;81.95;-17125.47;5016093;28;20105;-76
2023/05/13 00:59:23;;;;;;;9.13;6.55;;;;;;;-148.88;82.17;-17125.47;4998297;28;20026;-76
2023/05/13 01:02:15;;;;;;;8.90;6.47;;;;;;;-148.88;82.09;-17125.47;5016381;28;20570;-76
2023/05/13 01:05:05;;;;;;;8.45;6.82;;;;;;;-148.88;83.13;-17125.47;5015779;28;20373;-76
2023/05/13 01:07:45;;;;;;;7.70;6.90;;;;;;;-148.88;83.03;-17125.47;5015729;28;20412;-76
2023/05/13 01:10:50;;;;;;;10.55;7.20;;;;;;;-148.88;83.01;-17125.47;5015968;28;20484;-76
2023/05/13 01:13:23;;;;;;;8.50;6.65;;;;;;;-148.88;83.63;-17125.47;4955499;29;20042;-76
2023/05/13 01:15:55;;;;;;;9.30;6.93;;;;;;;-148.88;84.21;-17125.47;4988322;28;20404;-76
2023/05/13 01:18:30;;;;;;;7.75;6.75;;;;;;;-148.88;84.90;-17125.47;5015568;28;20041;-76
2023/05/13 01:20:57;;;;;;;8.05;6.38;;;;;;;-148.88;85.31;-17125.47;4997992;28;20068;-76
2023/05/13 01:23:22;;;;;;;7.55;6.45;;;;;;;-148.88;86.08;-17125.47;5015435;28;20038;-76
2023/05/13 01:25:49;;;;;;;9.27;6.53;;;;;;;-148.88;86.75;-17125.47;5015330;28;20033;-76
2023/05/13 01:28:14;;;;;;;8.63;6.43;;;;;;;-148.88;87.55;-17125.47;4997659;28;20419;-76
2023/05/13 01:30:40;;;;;;;7.93;6.88;;;;;;;-148.88;87.58;-17125.47;5015199;28;20489;-76
2023/05/13 01:33:05;;;;;;;7.85;6.30;;;;;;;-148.88;87.44;-17125.47;5015178;28;20025;-76
2023/05/13 01:35:32;;;;;;;7.72;6.93;;;;;;;-148.88;87.68;-17125.47;5015056;28;20424;-76
2023/05/13 01:37:58;;;;;;;10.07;6.50;;;;;;;-148.88;88.35;-17125.47;4997450;28;20087;-76
2023/05/13 01:40:24;;;;;;;7.53;6.57;;;;;;;-148.88;88.33;-17125.47;5015021;28;20361;-76
2023/05/13 01:42:50;;;;;;;8.75;6.18;;;;;;;-148.88;88.47;-17125.47;4997524;28;20053;-76
2023/05/13 01:45:16;;;;;;;7.38;6.10;;;;;;;-148.88;89.50;-17125.47;5045033;22;20042;-89
2023/05/13 01:47:47;;;;;;;6.90;6.20;;;;;;;-148.88;89.61;-17125.47;5000819;28;20064;-88
2023/05/13 01:50:37;;;;;;;8.95;6.82;;;;;;;-148.88;89.13;-17125.47;4986126;28;20054;-88
2023/05/13 01:53:03;;;;;;;7.60;6.68;;;;;;;-148.88;89.57;-17125.47;4999586;28;20033;-89
2023/05/13 01:55:29;;;;;;;9.10;7.22;;;;;;;-148.88;92.51;-17125.47;5018109;28;20494;-88
2023/05/13 01:57:54;;;;;;;7.97;7.18;;;;;;;-148.88;93.01;-17125.47;5030513;22;20041;-74
2023/05/13 02:00:20;;;;;;;10.48;7.63;;;;;;;-148.88;93.86;-17125.47;5015340;28;20031;-73
2023/05/13 02:02:46;;;;;;;11.30;7.75;;;;;;;-148.88;94.36;-17125.47;5014978;28;20455;-74
2023/05/13 02:05:11;;;;;;;10.60;8.25;;;;;;;-148.88;94.45;-17125.47;5015247;28;20028;-74
2023/05/13 02:07:36;;;;;;;10.73;8.40;;;;;;;-148.88;94.77;-17125.47;5015279;28;20029;-73
2023/05/13 02:10:02;;;;;;;11.07;8.32;;;;;;;-148.88;94.16;-17125.47;5015229;28;20033;-74
2023/05/13 02:12:27;;;;;;;9.25;8.25;;;;;;;-148.88;93.77;-17125.47;5014895;28;20185;-73
2023/05/13 02:14:54;;;;;;;9.65;8.65;;;;;;;-148.88;93.81;-17125.47;5014975;28;20029;-74
2023/05/13 02:17:19;;;;;;;9.70;8.70;;;;;;;-148.88;94.33;-17125.47;5015091;28;20057;-74
2023/05/13 02:19:45;;;;;;;9.35;8.45;;;;;;;-148.88;94.58;-17125.47;5015283;28;20029;-74
2023/05/13 02:22:10;;;;;;;11.82;8.45;;;;;;;-148.88;95.27;-17125.47;5015017;28;20032;-74
2023/05/13 02:24:38;;;;;;;12.75;8.82;;;;;;;-148.88;96.13;-17125.47;5014946;28;20028;-74
2023/05/13 02:27:04;;;;;;;10.70;9.57;;;;;;;-148.88;96.44;-17125.47;5014202;28;20026;-73
2023/05/13 02:29:30;;;;;;;10.52;9.43;;;;;;;-148.88;96.96;-17125.47;5014815;28;20405;-73
2023/05/13 02:31:55;;;;;;;11.38;9.02;;;;;;;-148.88;97.01;-17125.47;5015204;28;20025;-73
2023/05/13 02:34:21;;;;;;;10.27;9.25;;;;;;;-148.88;98.23;-17125.47;5014636;28;20030;-74
2023/05/13 02:36:47;;;;;;;12.77;9.80;;;;;;;-148.88;98.89;-17125.47;5014778;28;20384;-73
2023/05/13 02:39:13;;;;;;;11.80;9.50;;;;;;;-148.88;99.21;-17125.47;5014608;28;20069;-73
2023/05/13 02:41:38;;;;;;;10.40;8.88;;;;;;;-148.88;98.41;-17125.47;5014814;28;20038;-73
2023/05/13 02:44:03;;;;;;;10.77;9.52;;;;;;;-148.88;100.00;-17125.47;4996473;28;20014;-74
2023/05/13 02:46:29;;;;;;;12.35;10.18;;;;;;;-148.88;100.00;-17125.47;5014616;28;20029;-73
2023/05/13 02:48:54;;;;;;;12.02;9.32;;;;;;;-148.88;100.00;-17125.47;5014389;28;20057;-73
2023/05/13 02:51:20;;;;;;;15.07;9.70;;;;;;;-148.88;100.00;-17125.47;5014676;28;20018;-75
2023/05/13 02:53:45;;;;;;;11.88;9.77;;;;;;;-148.88;100.00;-17125.47;5014232;28;20535;-73
2023/05/13 02:56:10;;;;;;;11.52;9.80;;;;;;;-148.88;100.00;-17125.47;5014346;28;20567;-74
2023/05/13 02:58:36;;;;;;;10.90;9.80;;;;;;;-148.88;99.47;-17125.47;4996575;28;20433;-73
2023/05/13 03:01:01;;;;;;;11.70;9.70;;;;;;;-148.88;100.00;-17125.47;5014005;28;20061;-74
2023/05/13 03:03:27;;;;;;;11.30;10.05;;;;;;;-148.88;100.00;-17125.47;5014156;28;20025;-74
2023/05/13 03:05:53;;;;;;;10.65;9.57;;;;;;;-148.88;100.00;-17125.47;5014112;28;20025;-75
2023/05/13 03:08:18;;;;;;;12.20;10.10;;;;;;;-148.88;100.00;-17125.47;5014050;28;20032;-74
2023/05/13 03:10:44;;;;;;;10.88;9.75;;;;;;;-148.88;100.00;-17125.47;4996480;28;20465;-74
2023/05/13 03:13:09;;;;;;;12.68;10.07;;;;;;;-148.88;100.00;-17125.47;5013673;28;20537;-75
2023/05/13 03:15:35;;;;;;;12.10;10.35;;;;;;;-148.88;100.00;-17125.47;5013758;28;20104;-74
2023/05/13 03:18:00;;;;;;;11.52;10.32;;;;;;;-148.88;100.00;-17125.47;4995957;28;20026;-76
2023/05/13 03:20:25;;;;;;;12.57;10.60;;;;;;;-148.88;100.00;-17125.47;4995802;28;20350;-74
2023/05/13 03:22:51;;;;;;;15.10;10.85;;;;;;;-148.88;100.00;-17125.47;5014270;28;20026;-74
2023/05/13 03:25:16;;;;;;;12.63;10.80;;;;;;;-148.88;100.00;-17125.47;4995671;28;20025;-74
2023/05/13 03:27:41;;;;;;;12.60;10.88;;;;;;;-148.88;100.00;-17125.47;5013523;28;20025;-74
2023/05/13 03:30:07;;;;;;;11.98;10.77;;;;;;;-148.88;100.00;-17125.47;4995772;28;20028;-74
2023/05/13 03:32:33;;;;;;;12.52;11.30;;;;;;;-148.88;100.00;-17125.47;5013338;28;20026;-74
2023/05/13 03:35:02;;;;;;;13.85;12.25;;;;;;;-148.88;100.00;-17125.47;4995392;28;20028;-74
2023/05/13 03:37:27;;;;;;;13.73;12.32;;;;;;;-148.88;100.00;-17125.47;5012971;28;20034;-73
2023/05/13 03:39:53;;;;;;;13.57;12.20;;;;;;;-148.88;100.00;-17125.47;4995366;28;20022;-73
2023/05/13 03:42:19;;;;;;;13.32;11.80;;;;;;;-148.88;100.00;-17125.47;4995383;28;20060;-73
2023/05/13 03:44:44;;;;;;;14.20;11.50;;;;;;;-148.88;100.00;-17125.47;4995629;28;20018;-74
2023/05/13 03:47:10;;;;;;;18.02;11.93;;;;;;;-148.88;100.00;-17125.47;5013270;28;20029;-74
2023/05/13 03:49:35;;;;;;;12.98;8.65;;;;;;;-148.88;100.00;-17125.47;5013366;28;20033;-74
2023/05/13 03:52:01;;;;;;;16.33;8.43;;;;;;;-148.88;100.00;-17125.47;5013433;28;20168;-74
2023/05/13 03:54:26;;;;;;;12.73;10.93;;;;;;;-148.88;100.00;-17125.47;5013309;28;20037;-74
2023/05/13 03:56:52;;;;;;;11.32;8.15;;;;;;;-148.88;100.00;-17125.47;5013424;28;20018;-74
2023/05/13 03:59:17;;;;;;;14.10;11.00;;;;;;;-148.88;100.00;-17125.47;5013258;28;20040;-74
2023/05/13 04:01:42;;;;;;;15.98;11.93;;;;;;;-148.88;100.00;-17125.47;5013732;28;20040;-74
2023/05/13 04:04:08;;;;;;;14.18;11.93;;;;;;;-148.88;100.00;-17125.47;4995631;28;20014;-74
2023/05/13 04:06:33;;;;;;;12.88;11.05;;;;;;;-148.88;100.00;-17125.47;5013239;28;20026;-74
2023/05/13 04:08:58;;;;;;;14.27;12.05;;;;;;;-148.88;100.00;-17125.47;4995644;28;20105;-74
2023/05/13 04:11:24;;;;;;;12.95;11.57;;;;;;;-148.88;100.00;-17125.47;5013285;28;20400;-74
2023/05/13 04:13:50;;;;;;;15.48;12.00;;;;;;;-148.88;100.00;-17125.47;5013099;28;20109;-75
2023/05/13 04:16:16;;;;;;;14.77;12.02;;;;;;;-148.88;100.00;-17125.47;5013186;28;20488;-74
2023/05/13 04:18:41;;;;;;;14.48;11.70;;;;;;;-148.88;100.00;-17125.47;4995631;28;20029;-74
2023/05/13 04:21:07;;;;;;;15.95;11.68;;;;;;;-148.88;100.00;-17125.47;4995597;28;20114;-74
2023/05/13 04:23:33;;;;;;;13.23;11.43;;;;;;;-148.88;100.00;-17125.47;4995370;28;20392;-74
2023/05/13 04:25:58;;;;;;;13.35;11.95;;;;;;;-148.88;100.00;-17125.47;5013206;28;20033;-75
2023/05/13 04:28:23;;;;;;;14.70;12.20;;;;;;;-148.88;100.00;-17125.47;5013389;28;20425;-74
2023/05/13 04:30:49;;;;;;;13.93;12.43;;;;;;;-148.88;100.00;-17125.47;4995347;28;20060;-74
2023/05/13 04:33:15;;;;;;;13.85;12.40;;;;;;;-148.88;100.00;-17125.47;4995243;28;20033;-74
2023/05/13 04:35:40;;;;;;;13.50;12.20;;;;;;;-148.88;100.00;-17125.47;5012846;28;20030;-74
2023/05/13 04:38:06;;;;;;;13.40;12.00;;;;;;;-148.88;100.00;-17125.47;5012794;28;20033;-74
2023/05/13 04:40:31;;;;;;;13.90;11.40;;;;;;;-148.88;100.00;-17125.47;5013063;28;20067;-74
2023/05/13 04:42:57;;;;;;;11.93;10.73;;;;;;;-148.88;100.00;-17125.47;5013041;28;20068;-74
2023/05/13 04:45:23;;;;;;;13.15;10.85;;;;;;;-148.88;100.00;-17125.47;5012851;28;20108;-74
2023/05/13 04:47:48;;;;;;;12.00;10.75;;;;;;;-148.88;100.00;-17125.47;5013158;28;20513;-74
2023/05/13 04:50:13;;;;;;;12.45;10.95;;;;;;;-148.88;100.00;-17125.47;5014750;28;20029;-74
2023/05/13 04:52:41;;;;;;;13.52;11.05;;;;;;;-148.88;100.00;-17125.47;5016625;28;20076;-74
2023/05/13 04:55:08;;;;;;;15.25;11.50;;;;;;;-148.88;100.00;-17125.47;5015729;28;20109;-75
2023/05/13 04:57:33;;;;;;;12.90;10.95;;;;;;;-148.88;100.00;-17125.47;5015881;28;20097;-74
2023/05/13 04:59:59;;;;;;;14.65;10.68;;;;;;;-148.88;100.00;-17125.47;5015614;28;20140;-74
2023/05/13 05:02:25;;;;;;;14.40;10.48;;;;;;;-148.88;100.00;-17125.47;5015750;28;20021;-76
2023/05/13 05:04:50;;;;;;;11.75;10.45;;;;;;;-148.88;100.00;-17125.47;5015677;28;20020;-75
2023/05/13 05:07:15;;;;;;;14.30;9.95;;;;;;;-148.88;100.00;-17125.47;5015783;28;20026;-75
2023/05/13 05:09:41;;;;;;;14.60;11.02;;;;;;;-148.88;100.00;-17125.47;5016035;28;20036;-77
2023/05/13 05:12:06;;;;;;;12.27;10.82;;;;;;;-148.88;100.00;-17125.47;5016132;28;20088;-74
2023/05/13 05:14:32;;;;;;;12.13;10.93;;;;;;;-148.88;100.00;-17125.47;5015638;28;20030;-75
2023/05/13 05:16:57;;;;;;;14.20;12.02;;;;;;;-148.88;100.00;-17125.47;4998070;28;20022;-75
2023/05/13 05:19:23;;;;;;;13.00;11.68;;;;;;;-148.88;100.00;-17125.47;5015558;28;20030;-76
2023/05/13 05:21:50;;;;;;;14.23;11.63;;;;;;;-148.88;100.00;-17125.47;5015648;28;20447;-75
2023/05/13 05:24:15;;;;;;;13.20;11.80;;;;;;;-148.88;100.00;-17125.47;5015410;28;20413;-76
2023/05/13 05:26:40;;;;;;;14.13;12.45;;;;;;;-148.88;100.00;-17125.47;5015662;28;20030;-75
2023/05/13 05:29:06;;;;;;;19.33;13.07;;;;;;;-148.88;100.00;-17125.47;5015460;28;20037;-75
2023/05/13 05:31:31;;;;;;;13.63;12.23;;;;;;;-148.88;100.00;-17125.47;5015329;28;20033;-75
2023/05/13 05:33:57;;;;;;;13.13;11.35;;;;;;;-148.88;100.00;-17125.47;5015479;28;20474;-76
2023/05/13 05:36:23;;;;;;;14.45;11.20;;;;;;;-148.88;100.00;-17125.47;5015183;28;20032;-75
2023/05/13 05:38:48;;;;;;;12.20;10.57;;;;;;;-148.88;100.00;-17125.47;4997558;28;20479;-76
2023/05/13 05:41:14;;;;;;;12.93;11.63;;;;;;;-148.88;100.00;-17125.47;5015253;28;20025;-76
2023/05/13 05:43:39;;;;;;;11.85;10.60;;;;;;;-148.88;100.00;-17125.47;5014935;28;20022;-75
2023/05/13 05:46:05;;;;;;;17.13;12.23;;;;;;;-148.88;100.00;-17125.47;5015306;28;20396;-76
2023/05/13 05:48:30;;;;;;;12.82;11.52;;;;;;;-148.88;100.00;-17125.47;5015361;28;20448;-76
2023/05/13 05:50:56;;;;;;;13.07;11.77;;;;;;;-148.88;100.00;-17125.47;5015014;28;20033;-76
2023/05/13 05:53:21;;;;;;;13.52;11.68;;;;;;;-148.88;100.00;-17125.47;5014832;28;20377;-76
2023/05/13 05:55:47;;;;;;;11.85;10.75;;;;;;;-148.88;100.00;-17125.47;5014850;28;20018;-76
2023/05/13 05:58:16;;;;;;;11.10;9.52;;;;;;;-148.88;100.00;-17125.47;4997201;28;20065;-76
2023/05/13 06:00:41;;;;;;;12.40;9.13;;;;;;;-148.88;100.00;-17125.47;4996362;28;20025;-76
2023/05/13 06:03:06;;;;;;;10.40;9.10;;;;;;;-148.88;100.00;-17125.47;5014462;28;20037;-76
2023/05/13 06:05:32;;;;;;;9.98;8.00;;;;;;;-148.88;100.00;-17125.47;5014590;28;20061;-76
2023/05/13 06:07:57;;;;;;;10.80;8.77;;;;;;;-148.88;100.00;-17125.47;4996966;28;20025;-76
2023/05/13 06:10:22;;;;;;;9.68;8.77;;;;;;;-148.88;100.00;-17125.47;5014797;28;20021;-76
2023/05/13 06:12:49;;;;;;;10.82;8.23;;;;;;;-148.88;100.00;-17125.47;5014507;28;20142;-76
2023/05/13 06:15:15;;;;;;;11.02;8.02;;;;;;;-148.88;100.00;-17125.47;4996700;28;20022;-77
2023/05/13 06:17:40;;;;;;;10.65;8.57;;;;;;;-148.88;100.00;-17125.47;4996810;28;20022;-76
2023/05/13 06:20:06;;;;;;;10.82;8.13;;;;;;;-148.88;100.00;-17125.47;5014336;28;20084;-76
2023/05/13 06:22:31;;;;;;;9.07;7.55;;;;;;;-148.88;100.00;-17125.47;5014311;28;20108;-76
2023/05/13 06:24:57;;;;;;;9.77;7.53;;;;;;;-148.88;95.89;-17125.47;4996704;28;20048;-76
2023/05/13 06:27:22;;;;;;;10.57;6.68;;;;;;;-148.88;94.14;-17125.47;5014992;28;20388;-76
2023/05/13 06:29:48;;;;;;;8.35;6.25;;;;;;;-148.88;91.34;-17125.47;5014287;28;20508;-76
2023/05/13 06:32:14;;;;;;;9.10;7.13;;;;;;;-148.88;92.24;-17125.47;5014204;28;20480;-76
2023/05/13 06:34:44;;;;;;;7.85;6.78;;;;;;;-148.88;93.32;-17125.47;4996433;28;20396;-76
2023/05/13 06:37:12;;;;;;;9.88;6.30;;;;;;;-148.88;91.12;-17125.47;5014144;28;20558;-76
2023/05/13 06:39:38;;;;;;;9.05;6.60;;;;;;;-148.88;93.26;-17125.47;5014151;28;20104;-76
2023/05/13 06:42:04;;;;;;;7.53;5.78;;;;;;;-148.88;89.25;-17125.47;4996398;28;20247;-76
2023/05/13 06:44:30;;;;;;;9.38;6.60;;;;;;;-148.88;94.03;-17125.47;5013780;28;20030;-76
2023/05/13 06:46:55;;;;;;;9.73;6.60;;;;;;;-148.88;90.43;-17125.47;5013905;28;20100;-77
2023/05/13 06:49:20;;;;;;;8.13;5.90;;;;;;;-148.88;84.81;-17125.47;5014202;28;20422;-76
2023/05/13 06:51:47;;;;;;;9.93;6.97;;;;;;;-148.88;89.12;-17125.47;5013860;28;20088;-77
2023/05/13 06:54:12;;;;;;;11.20;6.55;;;;;;;-148.88;87.39;-17125.47;5013723;28;20026;-76
2023/05/13 06:56:38;;;;;;;9.27;6.10;;;;;;;-148.88;87.37;-17125.47;4996034;28;20080;-76
2023/05/13 06:59:03;;;;;;;7.43;6.50;;;;;;;-148.88;88.22;-17125.47;4995928;28;20036;-76
2023/05/13 07:01:28;;;;;;;11.85;6.60;;;;;;;-148.88;87.09;-17125.47;5013676;28;20040;-77
2023/05/13 07:03:53;;;;;;;8.80;6.30;;;;;;;-148.88;88.14;-17125.47;5013749;28;20450;-76
2023/05/13 07:06:19;;;;;;;7.75;5.60;;;;;;;-148.88;84.07;-17125.47;5013494;28;20032;-77
2023/05/13 07:08:45;;;;;;;11.27;6.63;;;;;;;-148.88;88.21;-17125.47;5013412;28;20105;-77
2023/05/13 07:11:10;;;;;;;7.53;5.47;;;;;;;-148.88;87.67;-17125.47;4995826;28;20026;-76
2023/05/13 07:13:36;;;;;;;10.88;5.80;;;;;;;-148.88;84.36;-17125.47;5012969;28;20026;-77
2023/05/13 07:16:01;;;;;;;7.60;6.53;;;;;;;-148.88;85.01;-17125.47;5013430;28;20033;-76
2023/05/13 07:18:28;;;;;;;7.55;5.53;;;;;;;-148.88;85.51;-17125.47;4995701;28;20026;-76
2023/05/13 07:20:55;;;;;;;7.70;5.95;;;;;;;-148.88;84.76;-17125.47;5013393;28;20022;-76
2023/05/13 07:23:20;;;;;;;8.38;5.68;;;;;;;-148.88;84.20;-17125.47;4995676;28;20432;-77
2023/05/13 07:25:46;;;;;;;9.07;6.20;;;;;;;-148.88;82.60;-17125.47;5013234;28;20037;-76
2023/05/13 07:28:13;;;;;;;7.28;6.10;;;;;;;-148.88;83.28;-17125.47;5013516;28;20022;-77
2023/05/13 07:30:40;;;;;;;8.57;5.72;;;;;;;-148.88;82.98;-17125.47;5013317;28;20050;-77
2023/05/13 07:33:06;;;;;;;10.75;6.20;;;;;;;-148.88;80.53;-17125.47;4995683;28;20030;-77
2023/05/13 07:35:31;;;;;;;9.13;5.78;;;;;;;-148.88;79.82;-17125.47;5013234;28;20036;-76
2023/05/13 07:37:56;;;;;;;7.78;5.30;;;;;;;-148.88;75.33;-17125.47;5013318;28;20066;-76
2023/05/13 07:40:22;;;;;;;8.15;5.53;;;;;;;-148.88;76.29;-17125.47;5014273;28;20030;-76
2023/05/13 07:42:47;;;;;;;6.75;5.55;;;;;;;-148.88;73.62;-17125.47;5013385;28;20025;-77
2023/05/13 07:45:13;;;;;;;8.32;4.93;;;;;;;-148.88;73.86;-17125.47;5013277;28;20054;-76
2023/05/13 07:47:38;;;;;;;7.45;5.05;;;;;;;-148.88;78.34;-17125.47;5013199;28;20029;-76
2023/05/13 07:50:04;;;;;;;7.40;5.30;;;;;;;-148.88;75.53;-17125.47;5013192;28;20076;-76
2023/05/13 07:52:31;;;;;;;6.85;4.88;;;;;;;-148.88;74.69;-17125.47;4995489;28;20115;-76
2023/05/13 07:54:56;;;;;;;6.60;5.63;;;;;;;-148.88;76.92;-17125.47;5013021;28;20592;-76
2023/05/13 07:57:21;;;;;;;8.18;5.60;;;;;;;-148.88;78.77;-17125.47;5012802;28;20125;-76
2023/05/13 07:59:47;;;;;;;9.55;5.22;;;;;;;-148.88;72.56;-17125.47;5012787;28;20033;-76
2023/05/13 08:02:13;;;;;;;9.15;5.43;;;;;;;-148.88;72.55;-17125.47;5012795;28;20046;-76
2023/05/13 08:04:41;;;;;;;10.07;5.13;;;;;;;-148.88;73.71;-17125.47;5012692;28;20026;-76
2023/05/13 08:07:07;;;;;;;7.28;5.35;;;;;;;-148.88;74.14;-17125.47;5013212;28;20028;-77
2023/05/13 08:09:32;;;;;;;8.40;6.18;;;;;;;-148.88;71.40;-17125.47;5012773;28;20073;-76
2023/05/13 08:11:57;;;;;;;9.07;5.72;;;;;;;-148.88;73.84;-17125.47;4995250;28;20064;-77
2023/05/13 08:14:23;;;;;;;7.93;5.65;;;;;;;-148.88;72.89;-17125.47;5012576;28;20030;-76
2023/05/13 08:16:48;;;;;;;10.70;6.28;;;;;;;-148.88;74.25;-17125.47;5014539;28;20052;-77
2023/05/13 08:19:14;;;;;;;7.25;5.72;;;;;;;-148.88;73.65;-17125.47;5014563;28;20389;-76
2023/05/13 08:21:40;;;;;;;8.75;5.32;;;;;;;-148.88;72.77;-17125.47;5014082;28;20101;-76
2023/05/13 08:24:05;;;;;;;10.27;5.82;;;;;;;-148.88;74.57;-17125.47;5013962;28;20017;-76
2023/05/13 08:26:31;;;;;;;7.63;5.32;;;;;;;-148.88;73.05;-17125.47;5017245;28;20036;-77
2023/05/13 08:28:57;;;;;;;7.18;5.63;;;;;;;-148.88;73.76;-17125.47;5017308;28;20388;-77
2023/05/13 08:31:25;;;;;;;12.05;5.28;;;;;;;-148.88;75.41;-17125.47;4999501;28;20485;-77
2023/05/13 08:33:52;;;;;;;6.57;5.50;;;;;;;-148.88;71.05;-17125.47;5017054;28;20455;-77
2023/05/13 08:36:17;;;;;;;7.38;5.72;;;;;;;-148.88;71.75;-17125.47;4999347;28;20489;-77
2023/05/13 08:38:43;;;;;;;10.10;5.88;;;;;;;-148.88;69.97;-17125.47;5016403;28;20041;-77
2023/05/13 08:41:11;;;;;;;8.70;5.80;;;;;;;-148.88;72.37;-17125.47;5016233;28;20030;-77
2023/05/13 08:43:38;;;;;;;9.27;5.93;;;;;;;-148.88;72.79;-17125.47;5016263;28;20026;-76
2023/05/13 08:46:07;;;;;;;7.68;5.95;;;;;;;-148.88;71.39;-17125.47;5016344;28;20029;-77
2023/05/13 08:48:35;;;;;;;11.50;5.70;;;;;;;-148.88;68.63;-17125.47;5016402;28;20040;-76
2023/05/13 08:51:01;;;;;;;8.38;5.63;;;;;;;-148.88;71.62;-17125.47;4998520;28;20025;-76
2023/05/13 08:53:27;;;;;;;8.65;6.43;;;;;;;-148.88;70.71;-17125.47;5016875;28;21961;-76
2023/05/13 08:55:53;;;;;;;7.15;5.18;;;;;;;-148.88;66.96;-17125.47;4999227;28;20076;-76
2023/05/13 08:58:18;;;;;;;8.27;5.95;;;;;;;-148.88;66.54;-17125.47;5016347;28;20091;-77
2023/05/13 09:00:44;;;;;;;8.57;5.60;;;;;;;-148.88;71.55;-17125.47;4998640;28;20033;-77
2023/05/13 09:03:11;;;;;;;7.63;5.72;;;;;;;-148.88;69.77;-17125.47;5015866;28;20029;-76
2023/05/13 09:05:37;;;;;;;7.18;5.45;;;;;;;-148.88;72.10;-17125.47;5015724;28;20048;-76
2023/05/13 09:08:10;;;;;;;10.25;6.18;;;;;;;-148.88;69.15;-17125.47;5016006;28;20433;-76
2023/05/13 09:10:38;;;;;;;9.25;5.80;;;;;;;-148.88;65.99;-17125.47;5015922;28;20034;-76
2023/05/13 09:13:04;;;;;;;8.90;5.53;;;;;;;-148.88;64.32;-17125.47;5015611;28;20030;-76
2023/05/13 09:15:30;;;;;;;7.65;6.20;;;;;;;-148.88;65.86;-17125.47;5015545;28;20036;-78
2023/05/13 09:18:03;;;;;;;10.30;5.75;;;;;;;-148.88;64.18;-17125.47;4998498;28;20044;-77
2023/05/13 09:20:29;;;;;;;10.60;5.30;;;;;;;-148.88;66.33;-17125.47;5015612;28;20028;-77
2023/05/13 09:22:55;;;;;;;8.65;5.32;;;;;;;-148.88;70.13;-17125.47;5015656;28;20032;-77
2023/05/13 09:25:24;;;;;;;7.05;5.60;;;;;;;-148.88;60.36;-17125.47;5016063;28;20485;-78
2023/05/13 09:27:57;;;;;;;6.40;5.43;;;;;;;-148.88;62.31;-17125.47;5017026;28;20377;-78
2023/05/13 09:30:24;;;;;;;9.40;5.57;;;;;;;-148.88;62.27;-17125.47;5016788;28;20030;-76
2023/05/13 09:33:12;;;;;;;8.05;5.63;;;;;;;-148.88;64.86;-17125.47;5015902;28;20406;-77
2023/05/13 09:35:41;;;;;;;7.88;5.47;;;;;;;-148.88;58.17;-17125.47;5015365;28;20505;-77
2023/05/13 09:38:20;;;;;;;9.77;5.55;;;;;;;-148.88;56.69;-17125.47;4998539;28;20029;-78
2023/05/13 09:40:52;;;;;;;7.47;5.38;;;;;;;-148.88;58.51;-17125.47;5015983;28;20029;-77
2023/05/13 09:43:20;;;;;;;7.30;5.30;;;;;;;-148.88;61.14;-17125.47;5015115;28;20026;-76
2023/05/13 09:45:45;;;;;;;8.45;5.30;;;;;;;-148.88;60.75;-17125.47;5014933;28;20092;-76
2023/05/13 09:48:13;;;;;;;8.05;5.18;;;;;;;-148.88;61.85;-17125.47;4997358;28;20439;-76
2023/05/13 09:50:49;;;;;;;10.93;5.35;;;;;;;-148.88;56.69;-17125.47;5014842;28;20026;-76
2023/05/13 09:53:16;;;;;;;9.10;5.15;;;;;;;-148.88;56.42;-17125.47;5014811;28;20318;-76
2023/05/13 09:55:49;;;;;;;7.28;4.80;;;;;;;-148.88;51.85;-17125.47;4997173;28;20503;-76
2023/05/13 09:58:16;;;;;;;8.27;4.53;;;;;;;-148.88;55.46;-17125.47;4997042;28;20061;-76
2023/05/13 10:00:42;;;;;;;7.65;4.50;;;;;;;-148.88;55.92;-17125.47;5014846;28;20065;-76
2023/05/13 10:03:09;;;;;;;8.63;5.18;;;;;;;-148.88;56.40;-17125.47;5014666;28;20026;-77
2023/05/13 10:05:35;;;;;;;7.57;4.80;;;;;;;-148.88;55.68;-17125.47;5014932;28;20432;-76
2023/05/13 10:08:01;;;;;;;11.55;5.10;;;;;;;-148.88;59.47;-17125.47;5016982;28;20426;-76
2023/05/13 10:10:29;;;;;;;8.82;4.85;;;;;;;-148.88;56.42;-17125.47;5016232;28;20504;-77
2023/05/13 10:12:58;;;;;;;9.02;5.57;;;;;;;-148.88;54.72;-17125.47;5015654;28;20033;-76
2023/05/13 10:15:24;;;;;;;8.27;4.80;;;;;;;-148.88;51.58;-17125.47;5015495;28;20121;-77
2023/05/13 10:17:49;;;;;;;5.75;4.53;;;;;;;-148.88;53.67;-17125.47;5015076;28;20053;-77
2023/05/13 10:20:15;;;;;;;7.38;4.88;;;;;;;-148.88;54.85;-17125.47;5015199;28;20472;-77
2023/05/13 10:22:41;;;;;;;8.80;5.35;;;;;;;-148.88;58.12;-17125.47;5014816;28;20088;-76
2023/05/13 10:25:07;;;;;;;7.10;4.95;;;;;;;-148.88;53.47;-17125.47;5014851;28;20105;-78
2023/05/13 10:27:33;;;;;;;9.45;4.50;;;;;;;-148.88;49.14;-17125.47;5014488;28;20060;-76
2023/05/13 10:30:00;;;;;;;7.00;4.45;;;;;;;-148.88;56.73;-17125.47;5014531;28;20057;-77
2023/05/13 10:32:29;;;;;;;6.90;4.72;;;;;;;-148.88;51.17;-17125.47;5014341;28;20037;-77
2023/05/13 10:35:02;;;;;;;6.13;4.40;;;;;;;-148.88;50.70;-17125.47;5014159;28;20026;-77
2023/05/13 10:37:54;;;;;;;7.07;4.60;;;;;;;-148.88;51.43;-17125.47;5014292;28;20404;-76
2023/05/13 10:40:28;;;;;;;8.77;4.80;;;;;;;-148.88;51.77;-17125.47;5014752;28;20459;-77
2023/05/13 10:43:24;;;;;;;7.13;5.00;;;;;;;-148.88;50.64;-17125.47;4997488;28;20080;-76
2023/05/13 10:45:55;;;;;;;11.00;5.20;;;;;;;-148.88;52.49;-17125.47;5015284;28;20072;-76
2023/05/13 10:48:21;;;;;;;10.35;4.80;;;;;;;-148.88;50.20;-17125.47;5013813;28;20049;-76
2023/05/13 10:50:54;;;;;;;7.57;4.60;;;;;;;-148.88;47.91;-17125.47;4996489;28;20029;-76
2023/05/13 10:53:23;;;;;;;7.07;4.50;;;;;;;-148.88;51.73;-17125.47;5013903;28;20026;-76
2023/05/13 10:55:53;;;;;;;10.40;4.88;;;;;;;-148.88;49.65;-17125.47;5013952;28;20030;-74
2023/05/13 10:58:21;;;;;;;8.75;5.18;;;;;;;-148.88;47.62;-17125.47;5014222;28;20034;-75
2023/05/13 11:00:47;;;;;;;7.30;4.90;;;;;;;-148.88;50.31;-17125.47;5014031;28;20030;-74